sensor_id;sensor_type;location;lat;lon;timestamp;pressure;altitude;pressure_sealevel;temperature;humidity
54248;BME280;40161;39.768;2.722;2023-05-23T00:01:20;100871.31;;;16.38;95.38
54248;BME280;40161;39.768;2.722;2023-05-23T00:03:47;100824.34;;;16.10;95.27
54248;BME280;40161;39.768;2.722;2023-05-23T00:06:13;100838.16;;;16.17;95.92
54248;BME280;40161;39.768;2.722;2023-05-23T00:08:39;100848.84;;;16.15;96.25
54248;BME280;40161;39.768;2.722;2023-05-23T00:11:04;100849.59;;;16.30;96.50
54248;BME280;40161;39.768;2.722;2023-05-23T00:13:30;100837.72;;;16.33;93.82
54248;BME280;40161;39.768;2.722;2023-05-23T00:15:59;100785.31;;;15.86;94.10
54248;BME280;40161;39.768;2.722;2023-05-23T00:18:24;100824.31;;;16.24;94.80
54248;BME280;40161;39.768;2.722;2023-05-23T00:20:50;100843.66;;;16.35;92.95
54248;BME280;40161;39.768;2.722;2023-05-23T00:23:16;100833.88;;;15.98;94.44
54248;BME280;40161;39.768;2.722;2023-05-23T00:25:45;100875.38;;;16.02;97.28
54248;BME280;40161;39.768;2.722;2023-05-23T00:28:16;100867.91;;;15.95;97.61
54248;BME280;40161;39.768;2.722;2023-05-23T00:30:43;100850.50;;;15.95;97.77
54248;BME280;40161;39.768;2.722;2023-05-23T00:33:08;100842.19;;;16.02;96.72
54248;BME280;40161;39.768;2.722;2023-05-23T00:35:34;100822.50;;;15.68;95.92
54248;BME280;40161;39.768;2.722;2023-05-23T00:37:59;100838.31;;;15.71;98.79
54248;BME280;40161;39.768;2.722;2023-05-23T00:40:27;100807.47;;;15.54;99.86
54248;BME280;40161;39.768;2.722;2023-05-23T00:42:53;100848.94;;;15.90;98.55
54248;BME280;40161;39.768;2.722;2023-05-23T00:45:18;100782.59;;;15.43;98.25
54248;BME280;40161;39.768;2.722;2023-05-23T00:47:44;100850.06;;;16.03;98.41
54248;BME280;40161;39.768;2.722;2023-05-23T00:50:12;100846.50;;;16.06;97.43
54248;BME280;40161;39.768;2.722;2023-05-23T00:52:42;100812.56;;;15.92;94.97
54248;BME280;40161;39.768;2.722;2023-05-23T00:55:09;100856.72;;;16.24;94.27
54248;BME280;40161;39.768;2.722;2023-05-23T00:57:36;100846.50;;;16.06;94.94
54248;BME280;40161;39.768;2.722;2023-05-23T01:00:06;100824.78;;;16.01;94.90
54248;BME280;40161;39.768;2.722;2023-05-23T01:02:34;100843.31;;;16.19;94.16
54248;BME280;40161;39.768;2.722;2023-05-23T01:05:00;100842.59;;;16.00;92.95
54248;BME280;40161;39.768;2.722;2023-05-23T01:07:26;100829.19;;;15.81;95.70
54248;BME280;40161;39.768;2.722;2023-05-23T01:09:52;100841.78;;;15.96;95.77
54248;BME280;40161;39.768;2.722;2023-05-23T01:12:36;100848.88;;;16.11;95.39
54248;BME280;40161;39.768;2.722;2023-05-23T01:15:11;100846.16;;;15.97;94.66
54248;BME280;40161;39.768;2.722;2023-05-23T01:17:38;100850.13;;;15.85;97.29
54248;BME280;40161;39.768;2.722;2023-05-23T01:20:09;100807.88;;;15.56;96.89
54248;BME280;40161;39.768;2.722;2023-05-23T01:28:10;100819.31;;;15.87;96.48
54248;BME280;40161;39.768;2.722;2023-05-23T01:30:39;100794.44;;;15.76;96.15
54248;BME280;40161;39.768;2.722;2023-05-23T01:33:07;100760.09;;;15.52;96.06
54248;BME280;40161;39.768;2.722;2023-05-23T01:35:34;100812.19;;;15.75;95.55
54248;BME280;40161;39.768;2.722;2023-05-23T01:37:59;100826.41;;;15.84;96.20
54248;BME280;40161;39.768;2.722;2023-05-23T01:40:25;100824.06;;;15.83;95.55
54248;BME280;40161;39.768;2.722;2023-05-23T01:42:52;100829.56;;;15.90;95.01
54248;BME280;40161;39.768;2.722;2023-05-23T01:45:19;100809.06;;;15.77;94.74
54248;BME280;40161;39.768;2.722;2023-05-23T01:47:47;100843.38;;;15.97;93.43
54248;BME280;40161;39.768;2.722;2023-05-23T01:50:13;100815.75;;;15.61;95.67
54248;BME280;40161;39.768;2.722;2023-05-23T01:52:40;100818.94;;;15.56;96.79
54248;BME280;40161;39.768;2.722;2023-05-23T01:55:06;100826.84;;;15.54;97.75
54248;BME280;40161;39.768;2.722;2023-05-23T01:57:36;100835.56;;;15.42;98.20
54248;BME280;40161;39.768;2.722;2023-05-23T02:00:06;100837.50;;;15.27;99.05
54248;BME280;40161;39.768;2.722;2023-05-23T02:02:35;100859.25;;;15.36;99.54
54248;BME280;40161;39.768;2.722;2023-05-23T02:05:01;100788.56;;;15.13;99.14
54248;BME280;40161;39.768;2.722;2023-05-23T02:07:26;100856.09;;;15.66;98.38
54248;BME280;40161;39.768;2.722;2023-05-23T02:09:53;100853.34;;;15.66;96.76
54248;BME280;40161;39.768;2.722;2023-05-23T02:12:18;100833.56;;;15.42;97.83
54248;BME280;40161;39.768;2.722;2023-05-23T02:14:44;100846.22;;;15.43;98.23
54248;BME280;40161;39.768;2.722;2023-05-23T02:17:09;100840.28;;;15.27;97.68
54248;BME280;40161;39.768;2.722;2023-05-23T02:19:35;100863.22;;;15.35;99.94
54248;BME280;40161;39.768;2.722;2023-05-23T02:22:01;100869.91;;;15.48;99.21
54248;BME280;40161;39.768;2.722;2023-05-23T02:24:26;100874.66;;;15.40;100.00
54248;BME280;40161;39.768;2.722;2023-05-23T02:26:52;100869.91;;;15.55;99.75
54248;BME280;40161;39.768;2.722;2023-05-23T02:29:17;100876.63;;;15.69;97.75
54248;BME280;40161;39.768;2.722;2023-05-23T02:31:43;100867.16;;;15.59;97.97
54248;BME280;40161;39.768;2.722;2023-05-23T02:34:09;100850.94;;;15.47;99.28
54248;BME280;40161;39.768;2.722;2023-05-23T02:36:34;100854.13;;;15.49;99.71
54248;BME280;40161;39.768;2.722;2023-05-23T02:39:04;100835.16;;;15.36;100.00
54248;BME280;40161;39.768;2.722;2023-05-23T02:41:31;100869.50;;;15.57;100.00
54248;BME280;40161;39.768;2.722;2023-05-23T02:43:57;100849.75;;;15.48;100.00
54248;BME280;40161;39.768;2.722;2023-05-23T02:46:23;100845.41;;;15.50;100.00
54248;BME280;40161;39.768;2.722;2023-05-23T02:48:48;100867.16;;;15.70;100.00
54248;BME280;40161;39.768;2.722;2023-05-23T02:51:14;100841.44;;;15.62;100.00
54248;BME280;40161;39.768;2.722;2023-05-23T02:53:40;100852.53;;;15.76;100.00
54248;BME280;40161;39.768;2.722;2023-05-23T02:56:06;100858.44;;;15.78;100.00
54248;BME280;40161;39.768;2.722;2023-05-23T02:58:33;100847.38;;;15.78;100.00
54248;BME280;40161;39.768;2.722;2023-05-23T03:01:01;100787.34;;;15.43;100.00
54248;BME280;40161;39.768;2.722;2023-05-23T03:03:27;100823.69;;;15.74;100.00
54248;BME280;40161;39.768;2.722;2023-05-23T03:05:53;100826.03;;;15.64;100.00
54248;BME280;40161;39.768;2.722;2023-05-23T03:08:19;100826.44;;;15.74;100.00
54248;BME280;40161;39.768;2.722;2023-05-23T03:10:44;100822.47;;;15.75;100.00
54248;BME280;40161;39.768;2.722;2023-05-23T03:13:10;100836.66;;;15.95;100.00
54248;BME280;40161;39.768;2.722;2023-05-23T03:15:35;100812.97;;;15.79;99.45
54248;BME280;40161;39.768;2.722;2023-05-23T03:18:01;100822.88;;;15.84;99.63
54248;BME280;40161;39.768;2.722;2023-05-23T03:20:26;100838.22;;;16.03;99.16
54248;BME280;40161;39.768;2.722;2023-05-23T03:22:52;100829.13;;;16.02;99.48
54248;BME280;40161;39.768;2.722;2023-05-23T03:25:17;100801.88;;;15.94;99.08
54248;BME280;40161;39.768;2.722;2023-05-23T03:27:43;100793.97;;;15.92;98.55
54248;BME280;40161;39.768;2.722;2023-05-23T03:30:09;100826.66;;;16.29;97.45
54248;BME280;40161;39.768;2.722;2023-05-23T03:32:34;100819.59;;;16.14;97.31
54248;BME280;40161;39.768;2.722;2023-05-23T03:35:00;100840.56;;;16.11;97.81
54248;BME280;40161;39.768;2.722;2023-05-23T03:37:25;100777.00;;;15.79;99.17
54248;BME280;40161;39.768;2.722;2023-05-23T03:39:51;100839.78;;;16.14;99.74
54248;BME280;40161;39.768;2.722;2023-05-23T03:42:17;100834.22;;;16.18;98.53
54248;BME280;40161;39.768;2.722;2023-05-23T03:44:42;100833.41;;;16.21;97.97
54248;BME280;40161;39.768;2.722;2023-05-23T03:47:08;100858.72;;;16.23;97.95
54248;BME280;40161;39.768;2.722;2023-05-23T03:49:34;100842.91;;;16.17;99.58
54248;BME280;40161;39.768;2.722;2023-05-23T03:51:59;100808.56;;;16.00;98.93
54248;BME280;40161;39.768;2.722;2023-05-23T03:54:25;100827.09;;;16.17;98.07
54248;BME280;40161;39.768;2.722;2023-05-23T03:56:50;100815.63;;;16.15;98.26
54248;BME280;40161;39.768;2.722;2023-05-23T03:59:16;100787.63;;;15.95;98.23
54248;BME280;40161;39.768;2.722;2023-05-23T04:01:42;100815.69;;;16.04;97.97
54248;BME280;40161;39.768;2.722;2023-05-23T04:04:07;100812.13;;;16.04;99.76
54248;BME280;40161;39.768;2.722;2023-05-23T04:06:33;100775.84;;;15.80;99.91
54248;BME280;40161;39.768;2.722;2023-05-23T04:08:59;100785.66;;;15.92;99.49
54248;BME280;40161;39.768;2.722;2023-05-23T04:11:25;100804.19;;;16.06;99.41
54248;BME280;40161;39.768;2.722;2023-05-23T04:13:50;100758.44;;;15.80;98.91
54248;BME280;40161;39.768;2.722;2023-05-23T04:16:17;100776.94;;;16.01;97.57
54248;BME280;40161;39.768;2.722;2023-05-23T04:18:43;100792.69;;;16.18;97.06
54248;BME280;40161;39.768;2.722;2023-05-23T04:21:11;100799.78;;;16.23;97.17
54248;BME280;40161;39.768;2.722;2023-05-23T04:23:37;100776.50;;;16.09;97.47
54248;BME280;40161;39.768;2.722;2023-05-23T04:26:02;100764.31;;;15.93;98.42
54248;BME280;40161;39.768;2.722;2023-05-23T04:28:30;100757.63;;;15.90;99.76
54248;BME280;40161;39.768;2.722;2023-05-23T04:30:56;100781.69;;;15.93;98.79
54248;BME280;40161;39.768;2.722;2023-05-23T04:33:23;100769.88;;;15.82;100.00
54248;BME280;40161;39.768;2.722;2023-05-23T04:35:48;100817.66;;;16.04;100.00
54248;BME280;40161;39.768;2.722;2023-05-23T04:38:14;100793.16;;;15.99;99.24
54248;BME280;40161;39.768;2.722;2023-05-23T04:40:39;100775.41;;;15.89;100.00
54248;BME280;40161;39.768;2.722;2023-05-23T04:43:05;100783.25;;;16.01;99.43
54248;BME280;40161;39.768;2.722;2023-05-23T04:45:34;100763.56;;;15.81;99.47
54248;BME280;40161;39.768;2.722;2023-05-23T04:48:01;100772.66;;;15.82;100.00
54248;BME280;40161;39.768;2.722;2023-05-23T04:50:27;100754.09;;;15.64;100.00
54248;BME280;40161;39.768;2.722;2023-05-23T04:52:56;100748.56;;;15.64;100.00
54248;BME280;40161;39.768;2.722;2023-05-23T04:55:21;100730.47;;;15.42;100.00
54248;BME280;40161;39.768;2.722;2023-05-23T04:57:47;100797.56;;;15.82;100.00
54248;BME280;40161;39.768;2.722;2023-05-23T05:00:12;100794.75;;;15.89;100.00
54248;BME280;40161;39.768;2.722;2023-05-23T05:02:39;100790.41;;;15.95;100.00
54248;BME280;40161;39.768;2.722;2023-05-23T05:05:05;100791.16;;;16.03;100.00
54248;BME280;40161;39.768;2.722;2023-05-23T05:07:31;100742.56;;;15.95;100.00
54248;BME280;40161;39.768;2.722;2023-05-23T05:09:59;100786.69;;;16.27;99.22
54248;BME280;40161;39.768;2.722;2023-05-23T05:12:25;100760.25;;;16.15;98.11
54248;BME280;40161;39.768;2.722;2023-05-23T05:14:51;100781.16;;;16.27;98.40
54248;BME280;40161;39.768;2.722;2023-05-23T05:17:16;100770.88;;;16.24;98.60
54248;BME280;40161;39.768;2.722;2023-05-23T05:19:44;100790.25;;;16.34;98.26
54248;BME280;40161;39.768;2.722;2023-05-23T05:22:10;100783.88;;;16.34;98.36
54248;BME280;40161;39.768;2.722;2023-05-23T05:24:36;100822.19;;;16.50;98.52
54248;BME280;40161;39.768;2.722;2023-05-23T05:27:02;100811.53;;;16.48;98.61
54248;BME280;40161;39.768;2.722;2023-05-23T05:29:27;100797.69;;;16.48;97.73
54248;BME280;40161;39.768;2.722;2023-05-23T05:31:53;100800.44;;;16.48;97.30
54248;BME280;40161;39.768;2.722;2023-05-23T05:34:18;100761.81;;;16.23;97.62
54248;BME280;40161;39.768;2.722;2023-05-23T05:36:45;100780.69;;;16.43;97.15
54248;BME280;40161;39.768;2.722;2023-05-23T05:39:13;100788.53;;;16.51;97.35
54248;BME280;40161;39.768;2.722;2023-05-23T05:41:39;100794.44;;;16.60;97.28
54248;BME280;40161;39.768;2.722;2023-05-23T05:44:05;100787.72;;;16.54;97.97
54248;BME280;40161;39.768;2.722;2023-05-23T05:46:31;100806.63;;;16.74;97.34
54248;BME280;40161;39.768;2.722;2023-05-23T05:48:56;100794.78;;;16.70;96.90
54248;BME280;40161;39.768;2.722;2023-05-23T05:51:22;100783.69;;;16.70;95.83
54248;BME280;40161;39.768;2.722;2023-05-23T05:53:47;100784.88;;;16.76;95.15
54248;BME280;40161;39.768;2.722;2023-05-23T05:56:14;100817.56;;;16.95;94.91
54248;BME280;40161;39.768;2.722;2023-05-23T05:58:40;100803.31;;;16.97;96.03
54248;BME280;40161;39.768;2.722;2023-05-23T06:01:05;100788.31;;;16.91;97.02
54248;BME280;40161;39.768;2.722;2023-05-23T06:03:32;100803.28;;;17.00;97.49
54248;BME280;40161;39.768;2.722;2023-05-23T06:05:58;100796.97;;;16.96;96.82
54248;BME280;40161;39.768;2.722;2023-05-23T06:08:23;100785.16;;;16.89;96.82
54248;BME280;40161;39.768;2.722;2023-05-23T06:10:49;100796.19;;;16.96;97.92
54248;BME280;40161;39.768;2.722;2023-05-23T06:13:15;100800.91;;;16.99;98.14
54248;BME280;40161;39.768;2.722;2023-05-23T06:15:41;100800.16;;;16.95;97.84
54248;BME280;40161;39.768;2.722;2023-05-23T06:18:06;100802.03;;;17.08;97.56
54248;BME280;40161;39.768;2.722;2023-05-23T06:20:32;100807.16;;;17.14;96.51
54248;BME280;40161;39.768;2.722;2023-05-23T06:22:57;100780.28;;;17.07;97.29
54248;BME280;40161;39.768;2.722;2023-05-23T06:25:24;100783.38;;;17.13;98.40
54248;BME280;40161;39.768;2.722;2023-05-23T06:27:50;100765.56;;;17.14;97.31
54248;BME280;40161;39.768;2.722;2023-05-23T06:30:15;100788.41;;;17.28;96.53
54248;BME280;40161;39.768;2.722;2023-05-23T06:32:41;100753.19;;;17.22;96.40
54248;BME280;40161;39.768;2.722;2023-05-23T06:35:07;100745.22;;;17.27;95.35
54248;BME280;40161;39.768;2.722;2023-05-23T06:37:32;100755.81;;;17.36;95.78
54248;BME280;40161;39.768;2.722;2023-05-23T06:39:58;100743.66;;;17.23;95.34
54248;BME280;40161;39.768;2.722;2023-05-23T06:42:24;100682.22;;;16.90;95.26
54248;BME280;40161;39.768;2.722;2023-05-23T06:44:50;100734.50;;;17.29;95.64
54248;BME280;40161;39.768;2.722;2023-05-23T06:47:15;100694.31;;;17.07;95.97
54248;BME280;40161;39.768;2.722;2023-05-23T06:49:41;100712.38;;;17.22;95.20
54248;BME280;40161;39.768;2.722;2023-05-23T06:52:07;100738.28;;;17.46;94.93
54248;BME280;40161;39.768;2.722;2023-05-23T06:54:33;100704.84;;;17.23;94.56
54248;BME280;40161;39.768;2.722;2023-05-23T06:56:58;100674.09;;;17.06;93.82
54248;BME280;40161;39.768;2.722;2023-05-23T06:59:24;100669.34;;;17.11;94.42
54248;BME280;40161;39.768;2.722;2023-05-23T07:01:49;100719.59;;;17.50;95.75
54248;BME280;40161;39.768;2.722;2023-05-23T07:04:15;100725.59;;;17.49;95.69
54248;BME280;40161;39.768;2.722;2023-05-23T07:06:40;100701.91;;;17.37;96.69
54248;BME280;40161;39.768;2.722;2023-05-23T07:09:06;100651.88;;;17.14;96.50
54248;BME280;40161;39.768;2.722;2023-05-23T07:11:31;100689.25;;;17.36;97.98
54248;BME280;40161;39.768;2.722;2023-05-23T07:13:57;100697.50;;;17.43;98.13
54248;BME280;40161;39.768;2.722;2023-05-23T07:16:23;100676.69;;;17.28;98.20
54248;BME280;40161;39.768;2.722;2023-05-23T07:18:49;100702.66;;;17.45;99.05
54248;BME280;40161;39.768;2.722;2023-05-23T07:21:14;100680.88;;;17.40;98.55
54248;BME280;40161;39.768;2.722;2023-05-23T07:23:40;100708.56;;;17.47;98.24
54248;BME280;40161;39.768;2.722;2023-05-23T07:26:05;100714.97;;;17.40;98.40
54248;BME280;40161;39.768;2.722;2023-05-23T07:28:34;100706.28;;;17.38;98.43
54248;BME280;40161;39.768;2.722;2023-05-23T07:30:59;100713.28;;;17.50;96.65
54248;BME280;40161;39.768;2.722;2023-05-23T07:33:25;100710.94;;;17.48;93.32
54248;BME280;40161;39.768;2.722;2023-05-23T07:35:51;100697.97;;;17.38;89.69
54248;BME280;40161;39.768;2.722;2023-05-23T07:38:16;100714.75;;;17.58;88.61
54248;BME280;40161;39.768;2.722;2023-05-23T07:40:42;100728.09;;;17.70;89.37
54248;BME280;40161;39.768;2.722;2023-05-23T07:43:07;100681.28;;;17.42;91.13
54248;BME280;40161;39.768;2.722;2023-05-23T07:45:33;100735.97;;;17.79;92.49
54248;BME280;40161;39.768;2.722;2023-05-23T07:47:58;100712.22;;;17.71;77.48
54248;BME280;40161;39.768;2.722;2023-05-23T07:50:25;100733.41;;;17.92;78.20
54248;BME280;40161;39.768;2.722;2023-05-23T07:52:52;100745.22;;;17.99;83.68
54248;BME280;40161;39.768;2.722;2023-05-23T07:55:17;100720.41;;;17.85;85.89
54248;BME280;40161;39.768;2.722;2023-05-23T07:57:43;100753.53;;;17.99;85.43
54248;BME280;40161;39.768;2.722;2023-05-23T08:00:09;100742.13;;;17.94;85.87
54248;BME280;40161;39.768;2.722;2023-05-23T08:02:36;100746.84;;;17.97;86.70
54248;BME280;40161;39.768;2.722;2023-05-23T08:05:01;100764.59;;;18.03;86.29
54248;BME280;40161;39.768;2.722;2023-05-23T08:07:27;100755.97;;;17.97;83.45
54248;BME280;40161;39.768;2.722;2023-05-23T08:09:52;100759.03;;;18.03;83.33
54248;BME280;40161;39.768;2.722;2023-05-23T08:12:18;100779.94;;;18.15;83.44
54248;BME280;40161;39.768;2.722;2023-05-23T08:14:43;100772.34;;;18.19;83.55
54248;BME280;40161;39.768;2.722;2023-05-23T08:17:11;100782.06;;;18.34;83.89
54248;BME280;40161;39.768;2.722;2023-05-23T08:19:37;100749.88;;;18.06;83.75
54248;BME280;40161;39.768;2.722;2023-05-23T08:22:03;100788.06;;;18.29;83.77
54248;BME280;40161;39.768;2.722;2023-05-23T08:24:29;100774.38;;;18.15;83.57
54248;BME280;40161;39.768;2.722;2023-05-23T08:26:55;100806.59;;;18.39;83.71
54248;BME280;40161;39.768;2.722;2023-05-23T08:29:21;100828.31;;;18.48;84.89
54248;BME280;40161;39.768;2.722;2023-05-23T08:31:46;100813.31;;;18.42;84.13
54248;BME280;40161;39.768;2.722;2023-05-23T08:34:12;100803.75;;;18.43;84.28
54248;BME280;40161;39.768;2.722;2023-05-23T08:36:39;100821.44;;;18.56;84.11
54248;BME280;40161;39.768;2.722;2023-05-23T08:39:06;100791.13;;;18.38;82.76
54248;BME280;40161;39.768;2.722;2023-05-23T08:41:33;100830.78;;;18.69;82.02
54248;BME280;40161;39.768;2.722;2023-05-23T08:43:59;100807.31;;;18.74;82.34
54248;BME280;40161;39.768;2.722;2023-05-23T08:46:25;100819.06;;;18.85;80.42
54248;BME280;40161;39.768;2.722;2023-05-23T08:48:55;100825.38;;;18.89;79.49
54248;BME280;40161;39.768;2.722;2023-05-23T08:51:24;100837.41;;;19.06;78.73
54248;BME280;40161;39.768;2.722;2023-05-23T08:53:50;100771.84;;;18.82;74.88
54248;BME280;40161;39.768;2.722;2023-05-23T08:56:18;100822.44;;;19.24;69.96
54248;BME280;40161;39.768;2.722;2023-05-23T08:58:44;100772.59;;;19.09;72.15
54248;BME280;40161;39.768;2.722;2023-05-23T09:01:14;100806.69;;;19.37;71.10
54248;BME280;40161;39.768;2.722;2023-05-23T09:03:43;100790.91;;;19.30;71.19
54248;BME280;40161;39.768;2.722;2023-05-23T09:06:09;100799.50;;;19.39;69.15
54248;BME280;40161;39.768;2.722;2023-05-23T09:08:35;100785.94;;;19.41;67.92
54248;BME280;40161;39.768;2.722;2023-05-23T09:11:02;100747.06;;;19.38;70.91
54248;BME280;40161;39.768;2.722;2023-05-23T09:13:29;100810.59;;;19.86;71.30
54248;BME280;40161;39.768;2.722;2023-05-23T09:18:36;100802.50;;;19.92;69.92
54248;BME280;40161;39.768;2.722;2023-05-23T09:21:03;100825.06;;;19.98;68.75
54248;BME280;40161;39.768;2.722;2023-05-23T09:23:33;100815.72;;;20.08;65.81
54248;BME280;40161;39.768;2.722;2023-05-23T09:26:09;100826.16;;;20.24;63.87
54248;BME280;40161;39.768;2.722;2023-05-23T09:28:36;100826.50;;;20.26;62.55
54248;BME280;40161;39.768;2.722;2023-05-23T09:31:07;100811.00;;;20.25;61.03
54248;BME280;40161;39.768;2.722;2023-05-23T09:33:44;100813.78;;;20.25;62.07
54248;BME280;40161;39.768;2.722;2023-05-23T09:36:11;100831.50;;;20.34;62.87
54248;BME280;40161;39.768;2.722;2023-05-23T09:38:38;100841.34;;;20.39;64.02
54248;BME280;40161;39.768;2.722;2023-05-23T09:41:04;100826.00;;;20.31;64.32
54248;BME280;40161;39.768;2.722;2023-05-23T09:43:29;100812.22;;;20.24;65.62
54248;BME280;40161;39.768;2.722;2023-05-23T09:46:00;100809.53;;;20.36;62.63
54248;BME280;40161;39.768;2.722;2023-05-23T09:48:28;100803.25;;;20.32;60.58
54248;BME280;40161;39.768;2.722;2023-05-23T09:50:55;100827.19;;;20.50;61.54
54248;BME280;40161;39.768;2.722;2023-05-23T09:53:20;100821.75;;;20.43;60.30
54248;BME280;40161;39.768;2.722;2023-05-23T09:55:52;100796.53;;;20.30;60.01
54248;BME280;40161;39.768;2.722;2023-05-23T09:58:19;100838.56;;;20.59;63.30
54248;BME280;40161;39.768;2.722;2023-05-23T10:00:49;100829.50;;;20.55;66.50
54248;BME280;40161;39.768;2.722;2023-05-23T10:03:21;100828.41;;;20.49;67.32
54248;BME280;40161;39.768;2.722;2023-05-23T10:05:50;100846.41;;;20.64;67.31
54248;BME280;40161;39.768;2.722;2023-05-23T10:08:26;100836.09;;;20.61;67.42
54248;BME280;40161;39.768;2.722;2023-05-23T10:13:21;100821.22;;;20.68;66.46
54248;BME280;40161;39.768;2.722;2023-05-23T10:15:54;100831.00;;;20.76;65.23
54248;BME280;40161;39.768;2.722;2023-05-23T10:18:25;100831.19;;;20.85;64.02
54248;BME280;40161;39.768;2.722;2023-05-23T10:20:56;100846.47;;;20.97;65.11
54248;BME280;40161;39.768;2.722;2023-05-23T10:23:26;100837.72;;;20.95;64.05
54248;BME280;40161;39.768;2.722;2023-05-23T10:25:53;100785.09;;;20.80;64.22
54248;BME280;40161;39.768;2.722;2023-05-23T10:28:19;100829.28;;;21.15;64.23
54248;BME280;40161;39.768;2.722;2023-05-23T10:30:45;100798.69;;;21.11;64.25
54248;BME280;40161;39.768;2.722;2023-05-23T10:33:13;100817.53;;;21.07;63.52
54248;BME280;40161;39.768;2.722;2023-05-23T10:38:36;100833.47;;;21.23;62.67
54248;BME280;40161;39.768;2.722;2023-05-23T10:41:28;100832.69;;;21.22;61.88
54248;BME280;40161;39.768;2.722;2023-05-23T10:44:04;100834.97;;;21.27;62.17
54248;BME280;40161;39.768;2.722;2023-05-23T10:46:53;100837.28;;;21.29;60.67
54248;BME280;40161;39.768;2.722;2023-05-23T10:49:38;100831.91;;;21.22;61.29
54248;BME280;40161;39.768;2.722;2023-05-23T10:52:05;100837.66;;;21.31;61.91
54248;BME280;40161;39.768;2.722;2023-05-23T10:57:09;100816.91;;;21.16;61.70
54248;BME280;40161;39.768;2.722;2023-05-23T10:59:37;100827.53;;;21.21;62.90
54248;BME280;40161;39.768;2.722;2023-05-23T11:02:08;100833.03;;;21.24;62.28
54248;BME280;40161;39.768;2.722;2023-05-23T11:04:37;100762.97;;;20.90;62.42
54248;BME280;40161;39.768;2.722;2023-05-23T11:07:03;100802.34;;;21.08;62.13
54248;BME280;40161;39.768;2.722;2023-05-23T11:09:28;100799.81;;;21.14;61.91
54248;BME280;40161;39.768;2.722;2023-05-23T11:12:01;100822.31;;;21.39;61.46
54248;BME280;40161;39.768;2.722;2023-05-23T11:17:28;100813.34;;;21.48;61.22
54248;BME280;40161;39.768;2.722;2023-05-23T11:20:04;100815.91;;;21.71;61.52
54248;BME280;40161;39.768;2.722;2023-05-23T11:22:34;100809.28;;;21.65;61.05
54248;BME280;40161;39.768;2.722;2023-05-23T11:25:05;100830.44;;;21.79;62.45
54248;BME280;40161;39.768;2.722;2023-05-23T11:27:33;100807.16;;;21.69;62.58
54248;BME280;40161;39.768;2.722;2023-05-23T11:30:03;100839.47;;;21.99;61.04
54248;BME280;40161;39.768;2.722;2023-05-23T11:32:30;100820.47;;;22.07;58.32
54248;BME280;40161;39.768;2.722;2023-05-23T11:35:15;100791.66;;;22.10;59.52
54248;BME280;40161;39.768;2.722;2023-05-23T11:37:40;100810.81;;;22.24;58.08
54248;BME280;40161;39.768;2.722;2023-05-23T11:40:28;100831.22;;;22.50;57.91
54248;BME280;40161;39.768;2.722;2023-05-23T11:42:55;100838.16;;;22.59;56.18
54248;BME280;40161;39.768;2.722;2023-05-23T11:45:22;100829.97;;;22.51;55.20
54248;BME280;40161;39.768;2.722;2023-05-23T11:47:47;100834.69;;;22.55;55.97
54248;BME280;40161;39.768;2.722;2023-05-23T11:50:14;100830.75;;;22.39;56.35
54248;BME280;40161;39.768;2.722;2023-05-23T11:52:40;100840.81;;;22.49;56.92
54248;BME280;40161;39.768;2.722;2023-05-23T11:55:09;100818.00;;;22.38;56.16
54248;BME280;40161;39.768;2.722;2023-05-23T11:57:38;100828.97;;;22.45;57.13
54248;BME280;40161;39.768;2.722;2023-05-23T12:00:07;100808.59;;;22.32;56.44
54248;BME280;40161;39.768;2.722;2023-05-23T12:02:40;100825.84;;;22.56;53.88
54248;BME280;40161;39.768;2.722;2023-05-23T12:05:11;100839.06;;;22.68;53.05
54248;BME280;40161;39.768;2.722;2023-05-23T12:07:41;100836.03;;;22.63;53.77
54248;BME280;40161;39.768;2.722;2023-05-23T12:10:09;100862.53;;;22.84;52.40
54248;BME280;40161;39.768;2.722;2023-05-23T12:12:35;100836.47;;;22.61;52.79
54248;BME280;40161;39.768;2.722;2023-05-23T12:15:01;100859.97;;;22.77;53.32
54248;BME280;40161;39.768;2.722;2023-05-23T12:17:26;100846.56;;;22.71;53.24
54248;BME280;40161;39.768;2.722;2023-05-23T12:19:52;100839.72;;;22.85;52.12
54248;BME280;40161;39.768;2.722;2023-05-23T12:22:22;100858.31;;;23.05;51.94
54248;BME280;40161;39.768;2.722;2023-05-23T12:24:54;100817.66;;;22.87;53.05
54248;BME280;40161;39.768;2.722;2023-05-23T12:27:33;100854.63;;;23.08;53.54
54248;BME280;40161;39.768;2.722;2023-05-23T12:30:04;100843.50;;;22.91;54.63
54248;BME280;40161;39.768;2.722;2023-05-23T12:32:32;100819.69;;;22.74;54.61
54248;BME280;40161;39.768;2.722;2023-05-23T12:34:57;100829.78;;;22.71;54.39
54248;BME280;40161;39.768;2.722;2023-05-23T12:37:23;100827.09;;;22.68;55.22
54248;BME280;40161;39.768;2.722;2023-05-23T12:39:50;100858.09;;;22.86;55.13
54248;BME280;40161;39.768;2.722;2023-05-23T12:42:15;100804.81;;;22.64;54.71
54248;BME280;40161;39.768;2.722;2023-05-23T12:44:41;100839.06;;;22.94;53.94
54248;BME280;40161;39.768;2.722;2023-05-23T12:47:10;100836.94;;;22.85;54.08
54248;BME280;40161;39.768;2.722;2023-05-23T12:49:36;100838.25;;;22.81;54.46
54248;BME280;40161;39.768;2.722;2023-05-23T12:52:02;100840.81;;;22.88;55.37
54248;BME280;40161;39.768;2.722;2023-05-23T12:54:27;100834.13;;;22.72;54.84
54248;BME280;40161;39.768;2.722;2023-05-23T12:56:53;100828.97;;;22.71;54.70
54248;BME280;40161;39.768;2.722;2023-05-23T12:59:19;100833.47;;;22.68;55.51
54248;BME280;40161;39.768;2.722;2023-05-23T13:01:44;100834.25;;;22.69;55.69
54248;BME280;40161;39.768;2.722;2023-05-23T13:04:10;100820.38;;;22.65;55.56
54248;BME280;40161;39.768;2.722;2023-05-23T13:06:35;100815.34;;;22.73;55.12
54248;BME280;40161;39.768;2.722;2023-05-23T13:09:01;100827.53;;;22.79;55.19